CheckWX is a tool to help pilots better visualize weather data.  It is not intended as a substitute for an official pre-flight weather briefing.

08:17:47 UTC

LJLJ METAR
Ljubljana Jože Pučnik Airport
Ljubljana, Slovenia
Current

48 mins ago

LJLJ 240730Z VRB02KT 8000 FEW023 BKN110 05/03 Q1021 NOSIG
Observed
Feb-24 @ 07:30 UTC
Wind
  • Variable at 2 KTS
Visibility
8,000 meters
Flight Rules
MVFR
Cloud Levels
  • Few at 2,300' AGL
  • Broken at 11,000' AGL
Temperature
C / 41°F
Dewpoint
C / 37°F
Humidity
87%
Altimeter
30.15" Hg
Pressure
1020.92 hPa
Previous

1 hour ago

LJLJ 240700Z VRB02KT 8000 FEW024 BKN110 03/02 Q1020 NOSIG
Observed
Feb-24 @ 07:00 UTC
Wind
  • Variable at 2 KTS
Visibility
8,000 meters
Flight Rules
MVFR
Cloud Levels
  • Few at 2,400' AGL
  • Broken at 11,000' AGL
Temperature
C / 37°F
Dewpoint
C / 36°F
Humidity
93%
Altimeter
30.12" Hg
Pressure
1019.92 hPa
Previous

2 hours ago

LJLJ 240630Z VRB02KT 8000 FEW024 BKN110 03/02 Q1020 NOSIG
Observed
Feb-24 @ 06:30 UTC
Wind
  • Variable at 2 KTS
Visibility
8,000 meters
Flight Rules
MVFR
Cloud Levels
  • Few at 2,400' AGL
  • Broken at 11,000' AGL
Temperature
C / 37°F
Dewpoint
C / 36°F
Humidity
93%
Altimeter
30.12" Hg
Pressure
1019.92 hPa